Magnolia, Ohio
Current Conditions -  °F | °C
As of 10:53 AM on Saturday 20 Dec 2014 (Local Time) from KPHD Reporting Station
Overcast Overcast  
Wind Chill: 31°   Ceiling: 2600
Heat Index: 31°   Visibility: 10mi
Dew Point: 20°   Wind: 3mph
Humidity: 64%   Direction: 10°N
Pressure: 30.3"   Gusts: NA
Location:  40.65°N, 81.29°W
Report Text: KPHD 201553Z AUTO 01003KT 10SM OVC026 M01/M07 A3030 RMK AO2 SLP269 T10061067
Loading
Personal Weather Stations






























Interactive Weather Map New forecast layout! Learn more

10-Day Weather Forecast

Advertisements
Track Severe Weather on mobile